createdAt,value
2022-11-22T00:02:57.307Z,41.1
2022-11-22T00:07:57.748Z,41.1
2022-11-22T00:12:58.389Z,41
2022-11-22T00:17:58.774Z,41
2022-11-22T00:22:59.234Z,40.9
2022-11-22T00:27:59.709Z,40.9
2022-11-22T00:33:00.141Z,40.8
2022-11-22T00:38:00.586Z,40.8
2022-11-22T00:43:01.033Z,40.8
2022-11-22T00:48:01.505Z,40.7
2022-11-22T00:53:02.116Z,40.6
2022-11-22T00:58:02.523Z,40.6
2022-11-22T01:03:02.967Z,40.6
2022-11-22T01:08:03.409Z,40.5
2022-11-22T01:13:03.854Z,40.4
2022-11-22T01:18:04.310Z,40.4
2022-11-22T01:23:04.743Z,40.4
2022-11-22T01:28:05.228Z,40.3
2022-11-22T01:33:05.806Z,40.2
2022-11-22T01:38:06.245Z,40.2
2022-11-22T01:43:10.230Z,40.2
2022-11-22T01:48:10.732Z,40.1
2022-11-22T01:53:11.240Z,40.1
2022-11-22T01:58:11.667Z,40.1
2022-11-22T02:03:12.274Z,40
2022-11-22T02:13:19.075Z,39.9
2022-11-22T02:18:19.566Z,39.9
2022-11-22T02:23:19.996Z,39.8
2022-11-22T02:28:20.449Z,39.8
2022-11-22T02:33:20.862Z,39.7
2022-11-22T02:38:21.344Z,39.7
2022-11-22T02:43:21.749Z,39.7
2022-11-22T02:48:22.151Z,39.6
2022-11-22T02:53:22.580Z,39.6
2022-11-22T02:58:23.009Z,39.5
2022-11-22T03:03:23.439Z,39.5
2022-11-22T03:08:23.869Z,39.4
2022-11-22T03:13:24.301Z,39.4
2022-11-22T03:18:24.703Z,39.4
2022-11-22T03:23:25.138Z,39.3
2022-11-22T03:28:25.590Z,39.2
2022-11-22T03:33:25.997Z,39.2
2022-11-22T03:38:26.480Z,39.2
2022-11-22T03:43:26.884Z,39.2
2022-11-22T03:48:27.267Z,39.1
2022-11-22T03:53:27.714Z,39.1
2022-11-22T03:58:28.123Z,39.1
2022-11-22T04:03:28.512Z,39
2022-11-22T04:08:28.916Z,39
2022-11-22T04:13:29.367Z,38.9
2022-11-22T04:18:29.766Z,38.9
2022-11-22T04:23:33.932Z,38.9
2022-11-22T04:29:01.795Z,38.8
2022-11-22T04:34:08.656Z,38.8
2022-11-22T04:39:09.059Z,38.7
2022-11-22T04:44:09.449Z,38.7
2022-11-22T04:49:10.086Z,38.7
2022-11-22T04:54:10.761Z,38.6
2022-11-22T04:59:11.126Z,38.6
2022-11-22T05:04:11.489Z,38.6
2022-11-22T05:09:11.860Z,38.5
2022-11-22T05:14:12.264Z,38.5
2022-11-22T05:19:12.638Z,38.4
2022-11-22T05:24:13.057Z,38.4
2022-11-22T05:29:13.435Z,38.4
2022-11-22T05:34:14.724Z,38.3
2022-11-22T05:39:15.112Z,38.3
2022-11-22T05:44:15.481Z,38.2
2022-11-22T05:49:15.867Z,38.2
2022-11-22T05:54:16.296Z,38.2
2022-11-22T05:59:17.119Z,38.1
2022-11-22T06:04:17.679Z,38.1
2022-11-22T06:09:18.013Z,38.1
2022-11-22T06:14:18.369Z,38.1
2022-11-22T06:19:18.722Z,38
2022-11-22T06:24:19.191Z,38
2022-11-22T06:29:19.564Z,37.9
2022-11-22T06:34:20.180Z,37.9
2022-11-22T06:39:20.488Z,37.9
2022-11-22T06:44:20.809Z,37.9
2022-11-22T06:49:22.026Z,37.8
2022-11-22T06:54:22.397Z,37.7
2022-11-22T06:59:22.720Z,37.7
2022-11-22T07:04:23.056Z,37.7
2022-11-22T07:09:23.430Z,37.7
2022-11-22T07:14:23.999Z,37.6
2022-11-22T07:19:25.393Z,37.6
2022-11-22T07:24:25.718Z,37.6
2022-11-22T07:29:26.297Z,37.6
2022-11-22T07:34:26.832Z,37.5
2022-11-22T07:39:27.348Z,37.5
2022-11-22T07:44:28.813Z,37.4
2022-11-22T07:49:29.344Z,37.4
2022-11-22T07:54:29.790Z,37.4
2022-11-22T07:59:31.419Z,37.4
2022-11-22T08:04:31.866Z,37.3
2022-11-22T08:09:32.423Z,37.3
2022-11-22T08:14:33.058Z,37.2
2022-11-22T08:19:33.479Z,37.2
2022-11-22T08:24:33.806Z,37.2
2022-11-22T08:29:34.111Z,37.2
2022-11-22T08:34:34.563Z,37.1
2022-11-22T08:39:34.895Z,37.1
2022-11-22T08:44:35.444Z,37.1
2022-11-22T08:49:35.721Z,37.1
2022-11-22T08:54:37.860Z,37
2022-11-22T08:59:38.421Z,37
2022-11-22T09:04:38.811Z,36.9
2022-11-22T09:09:39.251Z,36.9
2022-11-22T09:14:40.495Z,36.9
2022-11-22T09:19:41.797Z,36.9
2022-11-22T09:24:42.511Z,36.8
2022-11-22T09:29:42.847Z,36.8
2022-11-22T09:34:43.179Z,36.8
2022-11-22T09:39:48.063Z,36.7
2022-11-22T09:44:48.768Z,36.7
2022-11-22T09:49:49.168Z,36.7
2022-11-22T09:54:49.468Z,36.6
2022-11-22T09:59:49.825Z,36.6
2022-11-22T10:04:50.493Z,36.6
2022-11-22T10:09:50.810Z,36.6
2022-11-22T10:14:51.150Z,36.6
2022-11-22T10:19:51.458Z,36.5
2022-11-22T10:24:52.118Z,36.5
2022-11-22T10:29:52.520Z,36.4
2022-11-22T10:34:52.829Z,36.4
2022-11-22T10:39:53.134Z,36.4
2022-11-22T10:44:53.547Z,36.4
2022-11-22T10:49:53.932Z,36.4
2022-11-22T10:54:54.484Z,36.3
2022-11-22T10:59:54.770Z,36.3
2022-11-22T11:04:55.204Z,36.2
2022-11-22T11:10:10.619Z,36.2
2022-11-22T11:15:12.097Z,36.2
2022-11-22T11:20:12.545Z,36.2
2022-11-22T11:25:12.924Z,36.1
2022-11-22T11:30:13.238Z,36.1
2022-11-22T11:35:13.511Z,36.1
2022-11-22T11:40:13.973Z,36.1
2022-11-22T11:45:15.298Z,36.1
2022-11-22T11:50:19.471Z,36
2022-11-22T11:55:23.735Z,36
2022-11-22T12:00:24.098Z,36
2022-11-22T12:05:24.865Z,35.9
2022-11-22T12:10:25.225Z,35.9
2022-11-22T12:15:25.625Z,35.9
2022-11-22T12:20:25.998Z,35.9
2022-11-22T12:25:33.845Z,35.8
2022-11-22T12:30:34.496Z,35.8
2022-11-22T12:35:34.861Z,35.8
2022-11-22T12:40:35.180Z,35.7
2022-11-22T12:45:35.524Z,35.7
2022-11-22T12:50:35.922Z,35.7
2022-11-22T12:55:36.484Z,35.7
2022-11-22T13:00:36.743Z,35.7
2022-11-22T13:05:37.065Z,35.6
2022-11-22T13:10:37.699Z,35.6
2022-11-22T13:15:38.265Z,35.6
2022-11-22T13:20:42.891Z,35.5
2022-11-22T13:25:43.761Z,35.4
2022-11-22T13:30:44.008Z,35.4
2022-11-22T13:35:44.430Z,35.4
2022-11-22T13:40:44.924Z,35.4
2022-11-22T13:45:45.510Z,35.4
2022-11-22T13:50:46.078Z,35.3
2022-11-22T13:55:46.356Z,35.3
2022-11-22T14:00:46.700Z,35.2
2022-11-22T14:05:47.221Z,35.2
2022-11-22T14:10:47.483Z,35.2
2022-11-22T14:15:48.189Z,35.2
2022-11-22T14:20:48.736Z,35.1
2022-11-22T14:25:48.975Z,35.1
2022-11-22T14:30:49.209Z,35.1
2022-11-22T14:35:49.487Z,35.1
2022-11-22T14:40:49.861Z,35.1
2022-11-22T14:45:50.192Z,35
2022-11-22T14:50:50.455Z,35
2022-11-22T14:55:50.943Z,35
2022-11-22T15:00:51.316Z,34.9
2022-11-22T15:09:08.989Z,34.9
2022-11-22T15:14:25.941Z,34.6
2022-11-22T16:02:06.250Z,34.3
2022-11-22T16:07:06.558Z,34.2
2022-11-22T16:12:06.907Z,34.2
2022-11-22T16:17:07.119Z,34.2
2022-11-22T16:22:07.463Z,34.2
2022-11-22T16:27:07.718Z,34.2
2022-11-22T16:32:08.130Z,34.2
2022-11-22T16:37:08.366Z,34.1
2022-11-22T16:42:08.684Z,34.1
2022-11-22T16:47:08.988Z,34.1
2022-11-22T16:52:09.417Z,34.1
2022-11-22T16:57:09.606Z,34.1
2022-11-22T17:02:09.958Z,34.1
2022-11-22T17:07:10.547Z,34.1
2022-11-22T17:12:10.811Z,34.8
2022-11-22T17:17:11.316Z,37.3
2022-11-22T17:22:11.820Z,39.9
2022-11-22T17:27:12.257Z,42.6
2022-11-22T17:32:12.786Z,44.5
2022-11-22T17:37:13.385Z,46.1
2022-11-22T17:42:14.302Z,48.2
2022-11-22T17:47:15.014Z,48.7
2022-11-22T17:52:16.121Z,49.4
2022-11-22T17:57:16.830Z,49.5
2022-11-22T18:02:17.675Z,49.5
2022-11-22T18:07:18.537Z,49.5
2022-11-22T18:12:19.257Z,49.4
2022-11-22T18:17:20.019Z,49.4
2022-11-22T18:22:20.962Z,49.4
2022-11-22T18:27:21.747Z,49.4
2022-11-22T18:32:22.416Z,49.3
2022-11-22T18:37:23.152Z,49.3
2022-11-22T18:42:24.289Z,49.2
2022-11-22T18:47:25.046Z,49.2
2022-11-22T18:52:25.726Z,49.2
2022-11-22T18:57:26.883Z,49.1
2022-11-22T19:02:27.583Z,49.1
2022-11-22T19:07:28.295Z,49.1
2022-11-22T19:12:29.483Z,49
2022-11-22T19:17:30.322Z,49
2022-11-22T19:22:31.075Z,48.9
2022-11-22T19:27:31.892Z,48.9
2022-11-22T19:32:32.647Z,48.9
2022-11-22T19:37:33.432Z,48.8
2022-11-22T19:42:34.205Z,48.8
2022-11-22T19:47:34.862Z,48.7
2022-11-22T19:52:35.557Z,48.7
2022-11-22T19:57:36.241Z,48.7
2022-11-22T20:02:37.052Z,48.6
2022-11-22T20:07:37.761Z,48.6
2022-11-22T20:12:38.508Z,48.6
2022-11-22T20:17:39.196Z,48.5
2022-11-22T20:22:39.988Z,48.4
2022-11-22T20:27:40.764Z,48.4
2022-11-22T20:32:41.440Z,48.4
2022-11-22T20:37:42.143Z,48.3
2022-11-22T20:42:42.830Z,48.3
2022-11-22T20:47:43.794Z,47.5
2022-11-22T20:52:44.618Z,46.8
2022-11-22T20:57:45.543Z,46.6
2022-11-22T21:02:46.345Z,46.4
2022-11-22T21:07:47.009Z,46.4
2022-11-22T21:12:47.871Z,46.3
2022-11-22T21:18:09.434Z,46.2
2022-11-22T21:23:17.837Z,46.2
2022-11-22T21:28:18.545Z,46.1
2022-11-22T21:33:19.227Z,46
2022-11-22T21:38:20.073Z,46
2022-11-22T21:43:20.809Z,45.9
2022-11-22T21:48:21.392Z,45.8
2022-11-22T21:53:21.993Z,45.8
2022-11-22T21:58:22.579Z,45.7
2022-11-22T22:03:23.182Z,45.6
2022-11-22T22:08:23.882Z,45.6
2022-11-22T22:13:24.621Z,45.3
2022-11-22T22:18:25.334Z,45.1
2022-11-22T22:23:27.192Z,45.1
2022-11-22T22:28:27.761Z,45
2022-11-22T22:33:28.660Z,44.9
2022-11-22T22:38:29.454Z,44.9
2022-11-22T22:43:30.013Z,44.7
2022-11-22T22:48:30.927Z,44.7
2022-11-22T22:53:31.501Z,44.6
2022-11-22T22:58:32.040Z,44.6
2022-11-22T23:03:33.010Z,44.5
2022-11-22T23:08:33.665Z,44.4
2022-11-22T23:13:34.203Z,44.4
2022-11-22T23:18:34.978Z,44.3
2022-11-22T23:23:35.617Z,44.2
2022-11-22T23:28:36.256Z,44.2
2022-11-22T23:33:36.757Z,44.1
2022-11-22T23:38:37.511Z,44.1
2022-11-22T23:43:38.032Z,44
2022-11-22T23:48:38.539Z,43.9
2022-11-22T23:53:39.032Z,43.9
2022-11-22T23:58:39.687Z,43.8
